createdAt,value
2023-04-02T00:01:38.797Z,1.93
2023-04-02T00:04:28.210Z,1.40
2023-04-02T00:07:30.744Z,1.33
2023-04-02T00:09:59.016Z,1.37
2023-04-02T00:12:26.971Z,1.47
2023-04-02T00:14:58.144Z,1.53
2023-04-02T00:17:28.096Z,1.40
2023-04-02T00:20:01.550Z,1.42
2023-04-02T00:22:35.902Z,1.70
2023-04-02T00:25:15.118Z,2.13
2023-04-02T00:27:44.010Z,1.63
2023-04-02T00:30:15.011Z,1.33
2023-04-02T00:32:43.622Z,1.30
2023-04-02T00:35:16.126Z,1.20
2023-04-02T00:37:47.258Z,1.57
2023-04-02T00:40:21.156Z,1.50
2023-04-02T00:42:52.044Z,2.10
2023-04-02T00:45:27.632Z,1.57
2023-04-02T00:48:02.061Z,1.40
2023-04-02T00:50:36.015Z,1.47
2023-04-02T00:53:13.927Z,1.60
2023-04-02T00:55:44.895Z,1.70
2023-04-02T00:58:20.343Z,1.37
2023-04-02T01:00:52.477Z,1.97
2023-04-02T01:03:38.133Z,1.90
2023-04-02T01:06:13.183Z,1.53
2023-04-02T01:08:54.089Z,1.70
2023-04-02T01:11:39.538Z,1.23
2023-04-02T01:14:18.945Z,1.60
2023-04-02T01:16:55.959Z,2.47
2023-04-02T01:19:50.459Z,1.67
2023-04-02T01:22:32.581Z,1.60
2023-04-02T01:25:06.501Z,1.50
2023-04-02T01:27:43.531Z,1.30
2023-04-02T01:30:21.182Z,1.67
2023-04-02T01:32:50.765Z,1.60
2023-04-02T01:35:22.784Z,1.85
2023-04-02T01:37:59.114Z,2.20
2023-04-02T01:40:37.082Z,1.40
2023-04-02T01:43:18.606Z,1.80
2023-04-02T01:45:51.158Z,1.43
2023-04-02T01:48:23.970Z,2.00
2023-04-02T01:50:56.527Z,1.77
2023-04-02T01:53:28.588Z,1.73
2023-04-02T01:56:00.446Z,1.77
2023-04-02T01:58:33.376Z,1.73
2023-04-02T02:01:07.285Z,1.40
2023-04-02T02:03:38.487Z,1.53
2023-04-02T02:06:12.436Z,1.70
2023-04-02T02:08:46.119Z,1.80
2023-04-02T02:11:19.016Z,1.40
2023-04-02T02:13:53.907Z,1.63
2023-04-02T02:16:28.252Z,1.93
2023-04-02T02:18:59.834Z,1.43
2023-04-02T02:21:38.534Z,1.63
2023-04-02T02:24:16.942Z,1.40
2023-04-02T02:26:48.709Z,1.43
2023-04-02T02:29:22.200Z,1.57
2023-04-02T02:31:56.639Z,1.80
2023-04-02T02:34:32.579Z,1.53
2023-04-02T02:37:05.973Z,1.73
2023-04-02T02:39:39.176Z,1.40
2023-04-02T02:42:15.063Z,1.63
2023-04-02T02:44:47.695Z,1.23
2023-04-02T02:47:23.214Z,1.43
2023-04-02T02:50:00.381Z,1.60
2023-04-02T02:52:33.719Z,1.60
2023-04-02T02:55:07.042Z,1.30
2023-04-02T02:57:41.597Z,1.50
2023-04-02T03:00:13.134Z,2.00
2023-04-02T03:02:45.729Z,3.10
2023-04-02T03:05:21.030Z,1.67
2023-04-02T03:07:53.357Z,1.93
2023-04-02T03:10:28.439Z,1.67
2023-04-02T03:13:04.302Z,1.93
2023-04-02T03:15:38.614Z,1.50
2023-04-02T03:18:15.840Z,1.43
2023-04-02T03:20:49.192Z,1.63
2023-04-02T03:23:24.898Z,1.10
2023-04-02T03:26:02.163Z,1.50
2023-04-02T03:28:35.633Z,1.70
2023-04-02T03:31:09.403Z,1.80
2023-04-02T03:33:44.397Z,1.63
2023-04-02T03:36:22.410Z,2.03
2023-04-02T03:38:57.224Z,1.37
2023-04-02T03:41:33.118Z,1.70
2023-04-02T03:44:08.649Z,2.53
2023-04-02T03:46:43.650Z,1.90
2023-04-02T03:49:25.229Z,1.80
2023-04-02T03:52:00.606Z,2.07
2023-04-02T03:54:31.339Z,1.60
2023-04-02T03:56:59.665Z,1.50
2023-04-02T03:59:39.985Z,1.17
2023-04-02T04:02:20.662Z,1.77
2023-04-02T04:04:55.187Z,1.60
2023-04-02T04:07:31.753Z,1.73
2023-04-02T04:10:06.092Z,1.57
2023-04-02T04:12:36.956Z,2.00
2023-04-02T04:15:15.335Z,1.57
2023-04-02T04:17:54.094Z,1.30
2023-04-02T04:20:32.414Z,1.30
2023-04-02T04:23:10.693Z,1.30
2023-04-02T04:25:43.274Z,1.60
2023-04-02T04:28:20.638Z,1.70
2023-04-02T04:30:56.108Z,1.87
2023-04-02T04:33:26.771Z,2.53
2023-04-02T04:36:02.685Z,1.50
2023-04-02T04:38:34.374Z,1.57
2023-04-02T04:41:13.637Z,1.90
2023-04-02T04:43:46.731Z,2.00
2023-04-02T04:46:24.169Z,2.07
2023-04-02T04:48:56.842Z,1.13
2023-04-02T04:51:35.271Z,1.80
2023-04-02T04:54:03.104Z,1.93
2023-04-02T04:56:33.969Z,2.50
2023-04-02T04:59:08.253Z,2.30
2023-04-02T05:01:44.879Z,1.60
2023-04-02T05:04:25.404Z,1.90
2023-04-02T05:07:01.820Z,1.60
2023-04-02T05:09:36.077Z,1.80
2023-04-02T05:12:11.845Z,1.70
2023-04-02T05:14:46.676Z,2.10
2023-04-02T05:17:22.909Z,1.73
2023-04-02T05:19:58.856Z,1.80
2023-04-02T05:22:36.874Z,2.00
2023-04-02T05:25:22.341Z,1.77
2023-04-02T05:28:00.038Z,1.53
2023-04-02T05:30:51.198Z,1.83
2023-04-02T05:33:24.966Z,1.60
2023-04-02T05:36:01.773Z,2.27
2023-04-02T05:38:35.932Z,1.50
2023-04-02T05:41:08.521Z,1.80
2023-04-02T05:43:47.475Z,1.80
2023-04-02T05:46:18.719Z,2.03
2023-04-02T05:48:55.896Z,1.63
2023-04-02T05:51:34.406Z,2.00
2023-04-02T05:54:07.803Z,1.30
2023-04-02T05:56:44.186Z,1.80
2023-04-02T05:59:19.973Z,1.80
2023-04-02T06:01:54.289Z,1.50
2023-04-02T06:04:29.869Z,1.43
2023-04-02T06:07:07.829Z,1.67
2023-04-02T06:09:43.593Z,2.23
2023-04-02T06:12:26.536Z,1.70
2023-04-02T06:14:54.869Z,1.63
2023-04-02T06:17:23.456Z,1.47
2023-04-02T06:19:55.777Z,1.67
2023-04-02T06:22:28.140Z,1.70
2023-04-02T06:25:04.564Z,1.63
2023-04-02T06:27:36.552Z,1.60
2023-04-02T06:30:10.251Z,2.60
2023-04-02T06:32:38.116Z,2.00
2023-04-02T06:35:15.408Z,1.80
2023-04-02T06:37:46.682Z,1.70
2023-04-02T06:40:33.081Z,1.60
2023-04-02T06:43:03.940Z,1.70
2023-04-02T06:45:37.827Z,1.70
2023-04-02T06:48:06.353Z,2.00
2023-04-02T06:50:44.281Z,1.97
2023-04-02T06:53:22.060Z,1.60
2023-04-02T06:56:01.637Z,1.67
2023-04-02T06:58:29.421Z,1.55
2023-04-02T07:00:57.830Z,1.50
2023-04-02T07:03:28.352Z,1.77
2023-04-02T07:08:26.264Z,1.83
2023-04-02T07:10:56.318Z,1.83
2023-04-02T07:13:27.291Z,2.17
2023-04-02T07:15:57.356Z,1.60
2023-04-02T07:18:29.316Z,1.30
2023-04-02T07:21:01.391Z,1.67
2023-04-02T07:23:29.103Z,1.80
2023-04-02T07:25:58.594Z,1.50
2023-04-02T07:28:32.317Z,1.73
2023-04-02T07:31:00.258Z,1.60
2023-04-02T07:33:32.051Z,1.80
2023-04-02T07:36:00.061Z,1.70
2023-04-02T07:38:27.884Z,1.97
2023-04-02T07:40:55.626Z,1.80
2023-04-02T07:43:28.609Z,1.63
2023-04-02T07:45:56.378Z,1.90
2023-04-02T07:48:24.141Z,1.73
2023-04-02T07:50:54.072Z,1.50
2023-04-02T07:53:29.904Z,1.65
2023-04-02T07:55:58.694Z,1.63
2023-04-02T07:58:27.912Z,2.07
2023-04-02T08:00:55.703Z,2.23
2023-04-02T08:03:28.062Z,1.60
2023-04-02T08:05:57.902Z,1.60
2023-04-02T08:08:28.196Z,1.30
2023-04-02T08:10:57.991Z,1.42
2023-04-02T08:13:27.140Z,1.70
2023-04-02T08:16:10.909Z,1.43
2023-04-02T08:18:38.738Z,1.40
2023-04-02T08:21:08.715Z,1.33
2023-04-02T08:23:37.244Z,1.40
2023-04-02T08:26:05.915Z,1.40
2023-04-02T08:28:35.752Z,1.40
2023-04-02T08:31:04.902Z,1.90
2023-04-02T08:33:32.844Z,1.17
2023-04-02T08:36:00.948Z,1.33
2023-04-02T08:38:28.771Z,1.90
2023-04-02T08:41:00.839Z,1.77
2023-04-02T08:43:59.237Z,1.77
2023-04-02T08:46:31.809Z,1.30
2023-04-02T08:49:05.532Z,1.20
2023-04-02T08:51:37.078Z,1.40
2023-04-02T08:54:21.476Z,1.47
2023-04-02T08:56:56.396Z,1.60
2023-04-02T08:59:35.937Z,1.00
2023-04-02T09:02:13.674Z,1.60
2023-04-02T09:04:45.746Z,1.40
2023-04-02T09:07:16.581Z,1.10
2023-04-02T09:09:48.672Z,1.30
2023-04-02T09:12:21.006Z,1.37
2023-04-02T09:15:09.961Z,1.40
2023-04-02T09:17:46.753Z,1.40
2023-04-02T09:20:28.033Z,1.20
2023-04-02T09:22:57.327Z,1.40
2023-04-02T09:25:29.908Z,1.40
2023-04-02T09:28:01.688Z,1.50
2023-04-02T09:30:44.632Z,1.30
2023-04-02T09:33:12.972Z,0.90
2023-04-02T09:35:59.586Z,1.20
2023-04-02T09:38:31.680Z,1.80
2023-04-02T09:41:05.755Z,1.20
2023-04-02T09:43:35.938Z,1.30
2023-04-02T09:46:19.299Z,1.38
2023-04-02T09:48:54.172Z,2.43
2023-04-02T09:51:25.911Z,1.23
2023-04-02T09:54:10.036Z,0.80
2023-04-02T09:56:43.493Z,0.77
2023-04-02T09:59:16.962Z,0.90
2023-04-02T10:02:00.522Z,1.10
2023-04-02T10:04:36.895Z,0.90
2023-04-02T10:07:09.433Z,1.00
2023-04-02T10:09:38.987Z,0.80
2023-04-02T10:12:13.775Z,1.35
2023-04-02T10:14:45.933Z,0.80
2023-04-02T10:17:22.875Z,0.90
2023-04-02T10:19:54.567Z,0.60
2023-04-02T10:22:26.691Z,0.77
2023-04-02T10:24:54.410Z,0.57
2023-04-02T10:27:33.344Z,0.90
2023-04-02T10:30:15.934Z,0.50
2023-04-02T10:32:56.222Z,0.60
2023-04-02T10:35:36.953Z,0.55
2023-04-02T10:38:38.880Z,0.50
2023-04-02T10:41:18.035Z,0.60
2023-04-02T10:44:25.957Z,0.73
2023-04-02T10:47:05.108Z,0.40
2023-04-02T10:49:43.173Z,0.70
2023-04-02T10:52:17.809Z,0.57
2023-04-02T10:54:52.709Z,0.40
2023-04-02T10:57:30.084Z,0.50
2023-04-02T11:00:09.646Z,0.50
2023-04-02T11:02:44.820Z,0.50
2023-04-02T11:05:22.734Z,0.60
2023-04-02T11:07:57.865Z,0.77
2023-04-02T11:10:29.738Z,0.70
2023-04-02T11:13:04.822Z,0.60
2023-04-02T11:15:35.046Z,0.60
2023-04-02T11:18:05.223Z,0.60
2023-04-02T11:21:00.360Z,0.50
2023-04-02T11:23:32.818Z,0.80
2023-04-02T11:26:31.253Z,0.60
2023-04-02T11:29:16.750Z,1.13
2023-04-02T11:31:45.997Z,0.60
2023-04-02T11:34:37.856Z,0.90
2023-04-02T11:37:10.794Z,0.43
2023-04-02T11:39:53.625Z,0.50
2023-04-02T11:42:29.832Z,0.60
2023-04-02T11:45:02.037Z,1.07
2023-04-02T11:47:32.904Z,0.60
2023-04-02T11:50:07.152Z,0.57
2023-04-02T11:52:53.096Z,0.60
2023-04-02T11:55:30.659Z,0.50
2023-04-02T11:58:26.673Z,0.40
2023-04-02T12:01:22.400Z,0.60
2023-04-02T12:04:21.039Z,0.43
2023-04-02T12:06:59.928Z,0.50
2023-04-02T12:09:31.027Z,0.53
2023-04-02T12:12:01.396Z,1.17
2023-04-02T12:14:50.028Z,0.50
2023-04-02T12:17:25.130Z,0.70
2023-04-02T12:19:55.436Z,0.40
2023-04-02T12:22:27.194Z,0.70
2023-04-02T12:25:02.997Z,0.50
2023-04-02T12:27:31.111Z,0.60
2023-04-02T12:30:16.490Z,0.50
2023-04-02T12:32:44.246Z,0.77
2023-04-02T12:35:31.210Z,0.30
2023-04-02T12:37:59.182Z,0.40
2023-04-02T12:40:30.612Z,0.50
2023-04-02T12:43:00.380Z,0.60
2023-04-02T12:45:31.376Z,0.70
2023-04-02T12:48:03.537Z,0.60
2023-04-02T12:50:31.373Z,0.47
2023-04-02T12:53:00.937Z,0.40
2023-04-02T12:55:35.465Z,0.60
2023-04-02T12:58:03.157Z,0.40
2023-04-02T13:00:36.141Z,0.43
2023-04-02T13:03:22.571Z,0.70
2023-04-02T13:05:55.476Z,0.50
2023-04-02T13:08:29.058Z,0.60
2023-04-02T13:11:03.435Z,0.70
2023-04-02T13:13:37.817Z,0.30
2023-04-02T13:16:08.854Z,0.50
2023-04-02T13:18:38.566Z,0.50
2023-04-02T13:21:29.054Z,0.43
2023-04-02T13:26:29.358Z,0.60
2023-04-02T13:29:03.730Z,0.70
2023-04-02T13:31:33.333Z,0.50
2023-04-02T13:34:01.188Z,0.70
2023-04-02T13:36:29.624Z,1.23
2023-04-02T13:38:59.567Z,0.40
2023-04-02T13:41:35.271Z,0.80
2023-04-02T13:44:06.759Z,0.70
2023-04-02T13:46:37.027Z,0.60
2023-04-02T13:49:04.727Z,0.60
2023-04-02T13:51:37.301Z,0.67
2023-04-02T13:54:12.338Z,0.60
2023-04-02T13:56:41.440Z,0.60
2023-04-02T13:59:11.558Z,0.73
2023-04-02T14:01:40.104Z,0.50
2023-04-02T14:04:08.932Z,0.73
2023-04-02T14:06:54.674Z,0.63
2023-04-02T14:09:30.824Z,0.47
2023-04-02T14:12:10.653Z,0.73
2023-04-02T14:14:57.016Z,0.73
2023-04-02T14:17:39.714Z,0.60
2023-04-02T14:20:23.033Z,0.70
2023-04-02T14:23:08.205Z,0.63
2023-04-02T14:25:44.181Z,0.90
2023-04-02T14:28:24.198Z,0.50
2023-04-02T14:31:00.542Z,0.60
2023-04-02T14:33:38.794Z,0.60
2023-04-02T14:36:16.663Z,0.40
2023-04-02T14:38:57.908Z,0.90
2023-04-02T14:41:32.053Z,0.43
2023-04-02T14:44:05.571Z,0.57
2023-04-02T14:46:37.750Z,0.60
2023-04-02T14:49:20.979Z,0.40
2023-04-02T14:51:51.493Z,0.93
2023-04-02T14:56:56.495Z,0.90
2023-04-02T14:59:31.860Z,0.97
2023-04-02T15:02:04.473Z,0.87
2023-04-02T15:04:38.067Z,0.80
2023-04-02T15:07:12.810Z,0.50
2023-04-02T15:09:48.114Z,0.90
2023-04-02T15:12:22.802Z,0.80
2023-04-02T15:14:56.763Z,1.00
2023-04-02T15:17:24.803Z,0.60
2023-04-02T15:20:05.257Z,0.60
2023-04-02T15:22:38.994Z,0.93
2023-04-02T15:25:17.040Z,1.37
2023-04-02T15:28:09.119Z,1.37
2023-04-02T15:30:40.502Z,0.80
2023-04-02T15:33:35.475Z,0.77
2023-04-02T15:36:23.889Z,0.77
2023-04-02T15:38:59.679Z,0.50
2023-04-02T15:41:35.782Z,0.70
2023-04-02T15:44:10.790Z,1.03
2023-04-02T15:46:51.496Z,0.67
2023-04-02T15:49:41.167Z,0.80
2023-04-02T15:52:13.509Z,0.85
2023-04-02T15:55:02.399Z,1.20
2023-04-02T15:58:06.782Z,1.00
2023-04-02T16:00:43.365Z,0.60
2023-04-02T16:03:42.060Z,0.73
2023-04-02T16:06:21.712Z,0.73
2023-04-02T16:09:00.580Z,0.85
2023-04-02T16:11:28.392Z,0.90
2023-04-02T16:14:14.278Z,1.03
2023-04-02T16:16:44.037Z,0.73
2023-04-02T16:19:26.669Z,0.80
2023-04-02T16:22:01.902Z,0.73
2023-04-02T16:24:34.027Z,0.60
2023-04-02T16:27:18.981Z,0.70
2023-04-02T16:30:01.004Z,0.80
2023-04-02T16:32:45.606Z,0.60
2023-04-02T16:38:03.465Z,0.53
2023-04-02T16:40:38.192Z,0.60
2023-04-02T16:43:20.508Z,0.70
2023-04-02T16:46:38.144Z,0.80
2023-04-02T16:49:15.851Z,0.60
2023-04-02T16:51:57.027Z,0.57
2023-04-02T16:54:31.685Z,0.70
2023-04-02T16:57:14.901Z,0.70
2023-04-02T16:59:50.044Z,0.70
2023-04-02T17:02:34.814Z,1.00
2023-04-02T17:05:13.586Z,0.83
2023-04-02T17:07:47.679Z,0.83
2023-04-02T17:10:31.941Z,1.07
2023-04-02T17:13:20.739Z,1.17
2023-04-02T17:15:52.414Z,0.70
2023-04-02T17:18:24.813Z,0.90
2023-04-02T17:20:53.771Z,1.00
2023-04-02T17:23:27.524Z,0.93
2023-04-02T17:25:59.384Z,1.10
2023-04-02T17:28:39.075Z,1.10
2023-04-02T17:31:13.118Z,0.73
2023-04-02T17:33:44.632Z,0.77
2023-04-02T17:36:28.127Z,0.67
2023-04-02T17:39:08.039Z,0.80
2023-04-02T17:41:41.336Z,1.35
2023-04-02T17:44:33.650Z,0.63
2023-04-02T17:47:11.620Z,1.07
2023-04-02T17:49:47.372Z,1.03
2023-04-02T17:52:20.907Z,1.10
2023-04-02T17:55:04.272Z,0.70
2023-04-02T17:57:42.841Z,1.07
2023-04-02T18:00:20.467Z,1.63
2023-04-02T18:03:06.108Z,1.07
2023-04-02T18:05:41.625Z,1.30
2023-04-02T18:08:22.634Z,1.07
2023-04-02T18:11:02.987Z,0.67
2023-04-02T18:13:35.773Z,0.85
2023-04-02T18:16:14.744Z,1.00
2023-04-02T18:18:54.397Z,0.83
2023-04-02T18:21:32.644Z,1.38
2023-04-02T18:24:16.450Z,1.10
2023-04-02T18:26:59.699Z,1.00
2023-04-02T18:29:38.583Z,1.27
2023-04-02T18:32:27.583Z,0.77
2023-04-02T18:35:06.922Z,0.87
2023-04-02T18:37:39.928Z,0.87
2023-04-02T18:40:27.006Z,0.90
2023-04-02T18:43:05.550Z,1.00
2023-04-02T18:45:42.669Z,1.63
2023-04-02T18:48:23.372Z,1.40
2023-04-02T18:50:55.490Z,0.93
2023-04-02T18:53:27.737Z,1.70
2023-04-02T18:55:59.211Z,0.90
2023-04-02T18:58:35.139Z,1.70
2023-04-02T19:01:06.622Z,4.43
2023-04-02T19:03:41.999Z,1.70
2023-04-02T19:06:14.835Z,1.00
2023-04-02T19:08:48.492Z,1.13
2023-04-02T19:11:18.969Z,1.00
2023-04-02T19:16:32.458Z,1.10
2023-04-02T19:19:12.329Z,1.10
2023-04-02T19:22:18.687Z,3.35
2023-04-02T19:25:22.621Z,0.93
2023-04-02T19:28:06.521Z,1.10
2023-04-02T19:30:46.546Z,1.00
2023-04-02T19:33:30.046Z,1.33
2023-04-02T19:36:00.449Z,1.20
2023-04-02T19:43:46.215Z,1.20
2023-04-02T19:46:15.586Z,1.30
2023-04-02T19:52:10.279Z,0.90
2023-04-02T19:54:38.531Z,1.38
2023-04-02T19:57:06.785Z,1.70
2023-04-02T19:59:36.532Z,1.70
2023-04-02T20:02:09.983Z,0.93
2023-04-02T20:04:41.135Z,1.50
2023-04-02T20:07:08.954Z,1.27
2023-04-02T20:09:36.652Z,4.07
2023-04-02T20:12:06.601Z,1.60
2023-04-02T20:14:36.578Z,1.60
2023-04-02T20:17:05.725Z,2.30
2023-04-02T20:19:35.366Z,1.60
2023-04-02T20:22:05.322Z,1.55
2023-04-02T20:24:33.145Z,1.20
2023-04-02T20:27:02.680Z,1.30
2023-04-02T20:29:32.930Z,1.75
2023-04-02T20:32:00.648Z,1.33
2023-04-02T20:34:29.882Z,1.23
2023-04-02T20:36:59.985Z,1.57
2023-04-02T20:39:28.777Z,0.82
2023-04-02T20:42:02.709Z,1.30
2023-04-02T20:44:32.720Z,1.27
2023-04-02T20:47:02.629Z,1.40
2023-04-02T20:49:32.011Z,1.67
2023-04-02T20:51:59.766Z,0.97
2023-04-02T20:54:29.794Z,1.63
2023-04-02T20:56:59.414Z,1.45
2023-04-02T20:59:27.131Z,1.42
2023-04-02T21:01:54.976Z,1.10
2023-04-02T21:04:22.985Z,1.47
2023-04-02T21:06:56.862Z,1.43
2023-04-02T21:09:26.817Z,2.00
2023-04-02T21:11:54.524Z,1.77
2023-04-02T21:14:22.250Z,1.40
2023-04-02T21:16:54.108Z,1.07
2023-04-02T21:19:21.797Z,1.70
2023-04-02T21:21:49.527Z,1.30
2023-04-02T21:24:22.477Z,1.40
2023-04-02T21:26:51.550Z,1.47
2023-04-02T21:29:19.314Z,1.33
2023-04-02T21:31:52.571Z,1.50
2023-04-02T21:34:22.799Z,1.30
2023-04-02T21:36:55.295Z,1.75
2023-04-02T21:39:27.365Z,1.40
2023-04-02T21:41:55.388Z,1.87
2023-04-02T21:44:26.734Z,0.97
2023-04-02T21:46:56.851Z,1.50
2023-04-02T21:49:29.283Z,1.58
2023-04-02T21:51:56.952Z,1.03
2023-04-02T21:54:26.170Z,1.50
2023-04-02T21:56:58.119Z,1.87
2023-04-02T21:59:25.989Z,1.30
2023-04-02T22:01:54.238Z,1.33
2023-04-02T22:04:30.475Z,1.60
2023-04-02T22:06:58.383Z,1.60
2023-04-02T22:09:29.637Z,1.10
2023-04-02T22:12:01.608Z,1.93
2023-04-02T22:14:31.931Z,1.70
2023-04-02T22:16:59.773Z,1.92
2023-04-02T22:19:29.868Z,2.93
2023-04-02T22:21:59.835Z,1.33
2023-04-02T22:24:29.152Z,1.33
2023-04-02T22:26:58.760Z,2.20
2023-04-02T22:29:28.747Z,1.40
2023-04-02T22:31:56.483Z,1.23
2023-04-02T22:34:32.702Z,1.40
2023-04-02T22:37:02.905Z,1.20
2023-04-02T22:39:32.022Z,1.40
2023-04-02T22:42:01.582Z,1.40
2023-04-02T22:44:31.480Z,1.42
2023-04-02T22:46:59.377Z,1.40
2023-04-02T22:49:29.207Z,1.50
2023-04-02T22:51:57.079Z,1.70
2023-04-02T22:54:24.776Z,1.40
2023-04-02T22:56:55.720Z,1.60
2023-04-02T22:59:25.887Z,1.50
2023-04-02T23:01:53.847Z,1.50
2023-04-02T23:04:23.657Z,2.13
2023-04-02T23:06:53.478Z,2.40
2023-04-02T23:09:21.461Z,1.30
2023-04-02T23:11:51.369Z,1.60
2023-04-02T23:14:22.670Z,1.38
2023-04-02T23:16:50.436Z,1.30
2023-04-02T23:19:20.291Z,1.43
2023-04-02T23:21:50.118Z,1.45
2023-04-02T23:24:17.988Z,1.40
2023-04-02T23:26:47.568Z,1.30
2023-04-02T23:29:17.504Z,4.45
2023-04-02T23:31:47.026Z,1.83
2023-04-02T23:34:16.768Z,1.48
2023-04-02T23:36:46.686Z,1.52
2023-04-02T23:39:15.288Z,2.17
2023-04-02T23:41:45.704Z,1.23
2023-04-02T23:46:43.288Z,1.00
2023-04-02T23:49:14.894Z,1.40
2023-04-02T23:51:44.759Z,1.60
2023-04-02T23:54:15.363Z,1.38
2023-04-02T23:56:45.610Z,1.83
2023-04-02T23:59:15.586Z,1.70
